sensor_id;sensor_type;location;lat;lon;timestamp;pressure;altitude;pressure_sealevel;temperature;humidity
44044;BME280;29709;52.396;16.796;2024-02-15T00:01:47;101998.40;;;9.02;96.57
44044;BME280;29709;52.396;16.796;2024-02-15T00:05:01;102000.88;;;9.05;96.48
44044;BME280;29709;52.396;16.796;2024-02-15T00:08:14;102003.52;;;9.07;96.64
44044;BME280;29709;52.396;16.796;2024-02-15T00:11:29;102005.26;;;9.08;96.17
44044;BME280;29709;52.396;16.796;2024-02-15T00:14:42;102005.26;;;9.08;96.31
44044;BME280;29709;52.396;16.796;2024-02-15T00:17:55;102014.59;;;9.05;96.12
44044;BME280;29709;52.396;16.796;2024-02-15T00:21:09;102010.84;;;9.06;96.43
44044;BME280;29709;52.396;16.796;2024-02-15T00:24:22;102014.09;;;9.11;96.54
44044;BME280;29709;52.396;16.796;2024-02-15T00:27:37;102019.16;;;9.16;96.47
44044;BME280;29709;52.396;16.796;2024-02-15T00:30:50;102011.70;;;9.18;96.07
44044;BME280;29709;52.396;16.796;2024-02-15T00:34:03;102008.69;;;9.21;96.48
44044;BME280;29709;52.396;16.796;2024-02-15T00:37:16;102007.69;;;9.22;95.68
44044;BME280;29709;52.396;16.796;2024-02-15T00:40:30;102010.30;;;9.23;95.79
44044;BME280;29709;52.396;16.796;2024-02-15T00:43:43;102014.55;;;9.28;95.88
44044;BME280;29709;52.396;16.796;2024-02-15T00:46:56;102009.79;;;9.30;95.84
44044;BME280;29709;52.396;16.796;2024-02-15T00:52:58;101999.41;;;9.33;95.62
44044;BME280;29709;52.396;16.796;2024-02-15T00:56:11;102002.02;;;9.35;95.38
44044;BME280;29709;52.396;16.796;2024-02-15T00:59:24;101996.16;;;9.39;95.54
44044;BME280;29709;52.396;16.796;2024-02-15T01:02:37;101995.16;;;9.40;95.49
44044;BME280;29709;52.396;16.796;2024-02-15T01:05:51;101996.02;;;9.41;95.27
44044;BME280;29709;52.396;16.796;2024-02-15T01:09:04;101998.77;;;9.41;95.26
44044;BME280;29709;52.396;16.796;2024-02-15T01:12:18;101995.16;;;9.40;95.07
44044;BME280;29709;52.396;16.796;2024-02-15T01:15:32;101996.26;;;9.38;94.93
44044;BME280;29709;52.396;16.796;2024-02-15T01:18:45;101989.17;;;9.35;95.18
44044;BME280;29709;52.396;16.796;2024-02-15T01:21:58;101991.05;;;9.35;95.20
44044;BME280;29709;52.396;16.796;2024-02-15T01:25:12;101981.57;;;9.39;95.30
44044;BME280;29709;52.396;16.796;2024-02-15T01:28:28;101989.80;;;9.39;95.02
44044;BME280;29709;52.396;16.796;2024-02-15T01:31:42;101990.66;;;9.39;94.88
44044;BME280;29709;52.396;16.796;2024-02-15T01:34:56;101986.92;;;9.40;95.11
44044;BME280;29709;52.396;16.796;2024-02-15T01:38:09;101981.43;;;9.40;95.07
44044;BME280;29709;52.396;16.796;2024-02-15T01:41:23;101973.34;;;9.39;94.75
44044;BME280;29709;52.396;16.796;2024-02-15T01:44:36;101981.57;;;9.39;94.60
44044;BME280;29709;52.396;16.796;2024-02-15T01:47:50;101971.70;;;9.36;94.67
44044;BME280;29709;52.396;16.796;2024-02-15T01:51:03;101972.48;;;9.38;94.99
44044;BME280;29709;52.396;16.796;2024-02-15T01:54:19;101971.46;;;9.39;94.53
44044;BME280;29709;52.396;16.796;2024-02-15T01:57:35;101972.33;;;9.40;94.88
44044;BME280;29709;52.396;16.796;2024-02-15T02:00:51;101966.84;;;9.40;94.75
44044;BME280;29709;52.396;16.796;2024-02-15T02:04:06;101966.84;;;9.40;94.68
44044;BME280;29709;52.396;16.796;2024-02-15T02:07:20;101965.84;;;9.41;94.54
44044;BME280;29709;52.396;16.796;2024-02-15T02:10:33;101955.87;;;9.40;94.72
44044;BME280;29709;52.396;16.796;2024-02-15T02:13:46;101955.10;;;9.38;94.62
44044;BME280;29709;52.396;16.796;2024-02-15T02:20:26;101962.60;;;9.36;94.43
44044;BME280;29709;52.396;16.796;2024-02-15T02:23:40;101964.48;;;9.35;94.18
44044;BME280;29709;52.396;16.796;2024-02-15T02:26:53;101955.37;;;9.35;94.30
44044;BME280;29709;52.396;16.796;2024-02-15T02:30:15;101959.13;;;9.34;94.68
44044;BME280;29709;52.396;16.796;2024-02-15T02:33:31;101961.87;;;9.34;94.62
44044;BME280;29709;52.396;16.796;2024-02-15T02:36:46;101962.60;;;9.36;94.28
44044;BME280;29709;52.396;16.796;2024-02-15T02:40:01;101955.24;;;9.36;94.43
44044;BME280;29709;52.396;16.796;2024-02-15T02:43:17;101960.48;;;9.39;94.77
44044;BME280;29709;52.396;16.796;2024-02-15T02:46:30;101959.20;;;9.43;94.22
44044;BME280;29709;52.396;16.796;2024-02-15T02:49:43;101960.81;;;9.46;94.24
44044;BME280;29709;52.396;16.796;2024-02-15T02:52:58;101958.07;;;9.46;93.78
44044;BME280;29709;52.396;16.796;2024-02-15T02:56:12;101956.34;;;9.45;94.06
44044;BME280;29709;52.396;16.796;2024-02-15T02:59:26;101953.59;;;9.45;94.19
44044;BME280;29709;52.396;16.796;2024-02-15T03:02:39;101963.55;;;9.46;94.26
44044;BME280;29709;52.396;16.796;2024-02-15T03:05:52;101956.34;;;9.45;93.84
44044;BME280;29709;52.396;16.796;2024-02-15T03:09:07;101951.98;;;9.42;94.13
44044;BME280;29709;52.396;16.796;2024-02-15T03:12:23;101954.73;;;9.42;94.39
44044;BME280;29709;52.396;16.796;2024-02-15T03:15:36;101957.33;;;9.44;93.97
44044;BME280;29709;52.396;16.796;2024-02-15T03:18:49;101958.20;;;9.44;93.90
44044;BME280;29709;52.396;16.796;2024-02-15T03:22:04;101957.05;;;9.47;94.74
44044;BME280;29709;52.396;16.796;2024-02-15T03:25:19;101956.54;;;9.53;94.21
44044;BME280;29709;52.396;16.796;2024-02-15T03:28:36;101957.12;;;9.57;94.41
44044;BME280;29709;52.396;16.796;2024-02-15T03:31:50;101956.13;;;9.58;94.14
44044;BME280;29709;52.396;16.796;2024-02-15T03:35:07;101967.10;;;9.58;93.90
44044;BME280;29709;52.396;16.796;2024-02-15T03:38:21;101967.24;;;9.56;94.04
44044;BME280;29709;52.396;16.796;2024-02-15T03:41:34;101969.11;;;9.55;93.95
44044;BME280;29709;52.396;16.796;2024-02-15T03:44:47;101968.38;;;9.53;93.90
44044;BME280;29709;52.396;16.796;2024-02-15T03:48:00;101972.14;;;9.52;93.73
44044;BME280;29709;52.396;16.796;2024-02-15T03:51:17;101970.67;;;9.48;94.11
44044;BME280;29709;52.396;16.796;2024-02-15T03:54:33;101965.92;;;9.50;94.10
44044;BME280;29709;52.396;16.796;2024-02-15T03:57:48;101970.67;;;9.48;93.96
44044;BME280;29709;52.396;16.796;2024-02-15T04:01:02;101968.04;;;9.47;93.83
44044;BME280;29709;52.396;16.796;2024-02-15T04:04:19;101974.66;;;9.44;93.79
44044;BME280;29709;52.396;16.796;2024-02-15T04:07:35;101969.45;;;9.41;94.07
44044;BME280;29709;52.396;16.796;2024-02-15T04:10:49;101973.06;;;9.42;93.97
44044;BME280;29709;52.396;16.796;2024-02-15T04:14:03;101968.30;;;9.44;94.17
44044;BME280;29709;52.396;16.796;2024-02-15T04:17:17;101973.06;;;9.42;94.12
44044;BME280;29709;52.396;16.796;2024-02-15T04:20:34;101968.59;;;9.41;94.21
44044;BME280;29709;52.396;16.796;2024-02-15T04:23:47;101964.10;;;9.40;94.34
44044;BME280;29709;52.396;16.796;2024-02-15T04:27:00;101959.34;;;9.42;94.47
44044;BME280;29709;52.396;16.796;2024-02-15T04:30:14;101957.47;;;9.42;94.26
44044;BME280;29709;52.396;16.796;2024-02-15T04:33:28;101957.47;;;9.42;94.76
44044;BME280;29709;52.396;16.796;2024-02-15T04:36:46;101966.43;;;9.44;94.83
44044;BME280;29709;52.396;16.796;2024-02-15T04:40:04;101965.19;;;9.48;94.38
44044;BME280;29709;52.396;16.796;2024-02-15T04:43:26;101969.53;;;9.51;94.78
44044;BME280;29709;52.396;16.796;2024-02-15T04:46:39;101969.84;;;9.58;94.65
44044;BME280;29709;52.396;16.796;2024-02-15T04:49:54;101968.98;;;9.57;94.23
44044;BME280;29709;52.396;16.796;2024-02-15T04:53:08;101972.73;;;9.56;94.39
44044;BME280;29709;52.396;16.796;2024-02-15T04:56:21;101974.60;;;9.55;94.58
44044;BME280;29709;52.396;16.796;2024-02-15T04:59:36;101964.63;;;9.54;94.35
44044;BME280;29709;52.396;16.796;2024-02-15T05:02:50;101970.40;;;9.51;94.17
44044;BME280;29709;52.396;16.796;2024-02-15T05:06:04;101972.27;;;9.51;94.62
44044;BME280;29709;52.396;16.796;2024-02-15T05:09:17;101974.29;;;9.49;94.18
44044;BME280;29709;52.396;16.796;2024-02-15T05:12:31;101980.15;;;9.44;94.51
44044;BME280;29709;52.396;16.796;2024-02-15T05:15:45;101971.91;;;9.44;94.57
44044;BME280;29709;52.396;16.796;2024-02-15T05:18:59;101967.44;;;9.43;94.35
44044;BME280;29709;52.396;16.796;2024-02-15T05:22:12;101964.97;;;9.40;94.33
44044;BME280;29709;52.396;16.796;2024-02-15T05:25:27;101973.34;;;9.39;94.74
44044;BME280;29709;52.396;16.796;2024-02-15T05:28:45;101966.70;;;9.41;94.73
44044;BME280;29709;52.396;16.796;2024-02-15T05:31:58;101977.41;;;9.44;94.85
44044;BME280;29709;52.396;16.796;2024-02-15T05:35:14;101981.02;;;9.45;94.93
44044;BME280;29709;52.396;16.796;2024-02-15T05:38:28;101982.63;;;9.47;94.84
44044;BME280;29709;52.396;16.796;2024-02-15T05:41:41;101980.65;;;9.49;94.99
44044;BME280;29709;52.396;16.796;2024-02-15T05:44:54;101981.24;;;9.53;94.67
44044;BME280;29709;52.396;16.796;2024-02-15T05:48:07;101979.50;;;9.52;94.74
44044;BME280;29709;52.396;16.796;2024-02-15T05:51:22;101974.02;;;9.52;94.69
44044;BME280;29709;52.396;16.796;2024-02-15T05:54:36;101974.88;;;9.52;94.59
44044;BME280;29709;52.396;16.796;2024-02-15T05:57:49;101974.29;;;9.49;94.53
44044;BME280;29709;52.396;16.796;2024-02-15T06:01:03;101974.40;;;9.47;94.57
44044;BME280;29709;52.396;16.796;2024-02-15T06:04:19;101979.14;;;9.45;94.83
44044;BME280;29709;52.396;16.796;2024-02-15T06:07:32;101978.01;;;9.48;95.08
44044;BME280;29709;52.396;16.796;2024-02-15T06:10:46;101983.24;;;9.51;94.97
44044;BME280;29709;52.396;16.796;2024-02-15T06:14:00;101984.86;;;9.53;94.72
44044;BME280;29709;52.396;16.796;2024-02-15T06:17:13;101987.73;;;9.52;94.88
44044;BME280;29709;52.396;16.796;2024-02-15T06:20:27;101983.12;;;9.52;95.13
44044;BME280;29709;52.396;16.796;2024-02-15T06:23:43;101994.83;;;9.54;94.84
44044;BME280;29709;52.396;16.796;2024-02-15T06:26:56;101994.83;;;9.54;95.00
44044;BME280;29709;52.396;16.796;2024-02-15T06:30:13;102001.77;;;9.59;94.82
44044;BME280;29709;52.396;16.796;2024-02-15T06:33:38;102000.17;;;9.56;94.93
44044;BME280;29709;52.396;16.796;2024-02-15T06:37:03;102002.78;;;9.58;95.33
44044;BME280;29709;52.396;16.796;2024-02-15T06:40:28;102003.41;;;9.61;95.39
44044;BME280;29709;52.396;16.796;2024-02-15T06:43:43;102009.21;;;9.68;94.95
44044;BME280;29709;52.396;16.796;2024-02-15T06:46:56;101999.45;;;9.75;94.86
44044;BME280;29709;52.396;16.796;2024-02-15T06:50:13;102001.92;;;9.78;94.48
44044;BME280;29709;52.396;16.796;2024-02-15T06:53:26;102005.43;;;9.80;94.65
44044;BME280;29709;52.396;16.796;2024-02-15T06:56:39;102009.78;;;9.82;94.35
44044;BME280;29709;52.396;16.796;2024-02-15T06:59:53;102004.15;;;9.84;94.42
44044;BME280;29709;52.396;16.796;2024-02-15T07:03:06;102001.27;;;9.86;94.29
44044;BME280;29709;52.396;16.796;2024-02-15T07:06:21;101998.65;;;9.84;94.32
44044;BME280;29709;52.396;16.796;2024-02-15T07:09:34;102001.99;;;9.88;94.45
44044;BME280;29709;52.396;16.796;2024-02-15T07:12:48;102007.24;;;9.91;94.71
44044;BME280;29709;52.396;16.796;2024-02-15T07:16:07;102005.95;;;9.95;94.76
44044;BME280;29709;52.396;16.796;2024-02-15T07:19:20;102006.29;;;10.01;94.67
44044;BME280;29709;52.396;16.796;2024-02-15T07:22:33;102007.46;;;10.08;94.95
44044;BME280;29709;52.396;16.796;2024-02-15T07:25:50;102010.70;;;10.13;94.82
44044;BME280;29709;52.396;16.796;2024-02-15T07:29:06;102019.23;;;10.20;94.40
44044;BME280;29709;52.396;16.796;2024-02-15T07:32:20;102026.47;;;10.21;94.22
44044;BME280;29709;52.396;16.796;2024-02-15T07:35:34;102015.76;;;10.18;93.98
44044;BME280;29709;52.396;16.796;2024-02-15T07:38:48;102020.52;;;10.16;94.17
44044;BME280;29709;52.396;16.796;2024-02-15T07:42:02;102026.03;;;10.16;94.47
44044;BME280;29709;52.396;16.796;2024-02-15T07:45:17;102028.49;;;10.19;94.59
44044;BME280;29709;52.396;16.796;2024-02-15T07:48:30;102029.22;;;10.21;94.50
44044;BME280;29709;52.396;16.796;2024-02-15T07:51:44;102031.02;;;10.22;94.44
44044;BME280;29709;52.396;16.796;2024-02-15T07:55:05;102027.71;;;10.28;94.78
44044;BME280;29709;52.396;16.796;2024-02-15T08:02:04;102028.45;;;10.30;94.75
44044;BME280;29709;52.396;16.796;2024-02-15T08:05:18;102022.27;;;10.38;94.58
44044;BME280;29709;52.396;16.796;2024-02-15T08:08:33;102023.76;;;10.42;94.58
44044;BME280;29709;52.396;16.796;2024-02-15T08:11:50;102026.08;;;10.47;94.32
44044;BME280;29709;52.396;16.796;2024-02-15T08:15:10;102026.95;;;10.47;94.13
44044;BME280;29709;52.396;16.796;2024-02-15T08:18:24;102028.39;;;10.51;94.81
44044;BME280;29709;52.396;16.796;2024-02-15T08:21:38;102034.08;;;10.59;94.49
44044;BME280;29709;52.396;16.796;2024-02-15T08:24:54;102019.50;;;10.68;94.42
44044;BME280;29709;52.396;16.796;2024-02-15T08:31:51;102029.66;;;10.78;94.23
44044;BME280;29709;52.396;16.796;2024-02-15T08:35:06;102018.70;;;10.87;93.75
44044;BME280;29709;52.396;16.796;2024-02-15T08:38:22;102026.98;;;10.97;94.07
44044;BME280;29709;52.396;16.796;2024-02-15T08:41:35;102025.52;;;11.03;93.58
44044;BME280;29709;52.396;16.796;2024-02-15T08:44:48;102036.13;;;11.07;93.24
44044;BME280;29709;52.396;16.796;2024-02-15T08:48:02;102032.04;;;11.02;92.97
44044;BME280;29709;52.396;16.796;2024-02-15T08:51:17;102037.11;;;10.96;92.76
44044;BME280;29709;52.396;16.796;2024-02-15T08:54:33;102038.12;;;10.95;93.22
44044;BME280;29709;52.396;16.796;2024-02-15T08:57:47;102036.79;;;10.90;93.28
44044;BME280;29709;52.396;16.796;2024-02-15T09:01:00;102034.62;;;10.93;93.59
44044;BME280;29709;52.396;16.796;2024-02-15T09:04:13;102029.28;;;11.02;93.44
44044;BME280;29709;52.396;16.796;2024-02-15T09:07:26;102030.16;;;11.02;93.52
44044;BME280;29709;52.396;16.796;2024-02-15T09:10:39;102029.14;;;11.03;93.45
44044;BME280;29709;52.396;16.796;2024-02-15T09:13:53;102027.00;;;11.07;93.50
44044;BME280;29709;52.396;16.796;2024-02-15T09:17:06;102024.53;;;11.13;93.72
44044;BME280;29709;52.396;16.796;2024-02-15T09:20:23;102028.31;;;11.22;93.68
44044;BME280;29709;52.396;16.796;2024-02-15T09:23:41;102023.53;;;11.24;93.74
44044;BME280;29709;52.396;16.796;2024-02-15T09:26:55;102031.68;;;11.25;93.47
44044;BME280;29709;52.396;16.796;2024-02-15T09:30:09;102031.06;;;11.22;93.85
44044;BME280;29709;52.396;16.796;2024-02-15T09:33:23;102035.41;;;11.24;93.77
44044;BME280;29709;52.396;16.796;2024-02-15T09:36:36;102037.18;;;11.25;93.53
44044;BME280;29709;52.396;16.796;2024-02-15T09:39:52;102038.30;;;11.23;94.00
44044;BME280;29709;52.396;16.796;2024-02-15T09:43:05;102036.88;;;11.28;94.25
44044;BME280;29709;52.396;16.796;2024-02-15T09:46:18;102037.31;;;11.34;94.60
44044;BME280;29709;52.396;16.796;2024-02-15T09:49:38;102041.39;;;11.39;94.47
44044;BME280;29709;52.396;16.796;2024-02-15T09:52:53;102044.71;;;11.43;94.39
44044;BME280;29709;52.396;16.796;2024-02-15T09:56:10;102045.58;;;11.43;94.51
44044;BME280;29709;52.396;16.796;2024-02-15T09:59:25;102048.48;;;11.42;94.59
44044;BME280;29709;52.396;16.796;2024-02-15T10:02:43;102041.66;;;11.46;95.11
44044;BME280;29709;52.396;16.796;2024-02-15T10:05:59;102029.78;;;11.55;95.39
44044;BME280;29709;52.396;16.796;2024-02-15T10:12:42;102036.31;;;11.64;94.64
44044;BME280;29709;52.396;16.796;2024-02-15T10:19:28;102033.41;;;11.75;95.27
44044;BME280;29709;52.396;16.796;2024-02-15T10:22:47;102032.24;;;11.77;95.15
44044;BME280;29709;52.396;16.796;2024-02-15T10:26:18;102027.77;;;11.86;95.30
44044;BME280;29709;52.396;16.796;2024-02-15T10:29:24;102034.44;;;11.93;94.60
44044;BME280;29709;52.396;16.796;2024-02-15T10:32:37;102033.89;;;11.90;94.23
44044;BME280;29709;52.396;16.796;2024-02-15T10:39:19;102031.55;;;11.85;94.64
44044;BME280;29709;52.396;16.796;2024-02-15T10:42:33;102037.50;;;11.90;94.79
44044;BME280;29709;52.396;16.796;2024-02-15T10:45:48;102032.14;;;11.89;94.24
44044;BME280;29709;52.396;16.796;2024-02-15T10:49:05;102022.26;;;11.86;94.50
44044;BME280;29709;52.396;16.796;2024-02-15T10:52:19;102022.42;;;11.84;94.88
44044;BME280;29709;52.396;16.796;2024-02-15T10:59:20;102025.30;;;12.02;95.06
44044;BME280;29709;52.396;16.796;2024-02-15T11:02:42;102027.73;;;12.15;94.81
44044;BME280;29709;52.396;16.796;2024-02-15T11:06:00;102022.21;;;12.15;93.96
44044;BME280;29709;52.396;16.796;2024-02-15T11:09:15;102019.16;;;12.18;94.30
44044;BME280;29709;52.396;16.796;2024-02-15T11:12:29;102016.52;;;12.26;94.16
44044;BME280;29709;52.396;16.796;2024-02-15T11:15:45;102015.51;;;12.27;94.13
44044;BME280;29709;52.396;16.796;2024-02-15T11:19:01;102008.25;;;12.26;93.75
44044;BME280;29709;52.396;16.796;2024-02-15T11:22:16;102008.72;;;12.22;94.04
44044;BME280;29709;52.396;16.796;2024-02-15T11:25:33;102011.17;;;12.25;94.00
44044;BME280;29709;52.396;16.796;2024-02-15T11:28:47;102001.59;;;12.19;93.96
44044;BME280;29709;52.396;16.796;2024-02-15T11:32:03;102006.67;;;12.24;94.64
44044;BME280;29709;52.396;16.796;2024-02-15T11:35:23;101997.38;;;12.25;93.84
44044;BME280;29709;52.396;16.796;2024-02-15T11:38:40;101998.95;;;12.27;94.43
44044;BME280;29709;52.396;16.796;2024-02-15T11:45:21;101984.59;;;12.33;94.13
44044;BME280;29709;52.396;16.796;2024-02-15T11:48:36;101988.93;;;12.36;94.67
44044;BME280;29709;52.396;16.796;2024-02-15T11:51:52;101982.08;;;12.40;93.97
44044;BME280;29709;52.396;16.796;2024-02-15T11:55:06;101979.48;;;12.38;93.96
44044;BME280;29709;52.396;16.796;2024-02-15T11:58:25;101988.77;;;12.37;94.41
44044;BME280;29709;52.396;16.796;2024-02-15T12:01:52;101994.12;;;12.39;93.94
44044;BME280;29709;52.396;16.796;2024-02-15T12:05:18;101992.82;;;12.43;94.40
44044;BME280;29709;52.396;16.796;2024-02-15T12:08:47;101984.28;;;12.36;94.15
44044;BME280;29709;52.396;16.796;2024-02-15T12:12:13;101993.88;;;12.32;95.22
44044;BME280;29709;52.396;16.796;2024-02-15T12:15:38;101988.93;;;12.36;94.96
44044;BME280;29709;52.396;16.796;2024-02-15T12:19:03;101991.80;;;12.44;95.41
44044;BME280;29709;52.396;16.796;2024-02-15T12:22:19;101986.69;;;12.49;94.57
44044;BME280;29709;52.396;16.796;2024-02-15T12:25:33;101996.69;;;12.50;94.22
44044;BME280;29709;52.396;16.796;2024-02-15T12:28:51;101989.20;;;12.42;94.67
44044;BME280;29709;52.396;16.796;2024-02-15T12:32:07;101987.27;;;12.53;94.98
44044;BME280;29709;52.396;16.796;2024-02-15T12:35:22;101984.05;;;12.57;94.43
44044;BME280;29709;52.396;16.796;2024-02-15T12:38:38;101984.05;;;12.57;94.84
44044;BME280;29709;52.396;16.796;2024-02-15T12:41:51;101987.55;;;12.50;94.80
44044;BME280;29709;52.396;16.796;2024-02-15T12:45:05;101981.21;;;12.39;94.94
44044;BME280;29709;52.396;16.796;2024-02-15T12:48:20;101981.48;;;12.46;95.84
44044;BME280;29709;52.396;16.796;2024-02-15T12:51:33;101978.01;;;12.44;95.29
44044;BME280;29709;52.396;16.796;2024-02-15T12:54:47;101985.73;;;12.40;95.83
44044;BME280;29709;52.396;16.796;2024-02-15T12:58:04;101976.72;;;12.38;96.37
44044;BME280;29709;52.396;16.796;2024-02-15T13:01:21;101976.13;;;12.45;96.00
44044;BME280;29709;52.396;16.796;2024-02-15T13:04:34;101976.72;;;12.38;96.28
44044;BME280;29709;52.396;16.796;2024-02-15T13:07:48;101976.44;;;12.41;96.34
44044;BME280;29709;52.396;16.796;2024-02-15T13:11:02;101965.25;;;12.43;96.68
44044;BME280;29709;52.396;16.796;2024-02-15T13:14:16;101970.61;;;12.45;96.43
44044;BME280;29709;52.396;16.796;2024-02-15T13:17:29;101972.66;;;12.42;96.99
44044;BME280;29709;52.396;16.796;2024-02-15T13:24:16;101968.45;;;12.38;97.29
44044;BME280;29709;52.396;16.796;2024-02-15T13:27:30;101967.90;;;12.35;97.58
44044;BME280;29709;52.396;16.796;2024-02-15T13:30:43;101970.65;;;12.35;98.03
44044;BME280;29709;52.396;16.796;2024-02-15T13:33:58;101967.42;;;12.39;97.91
44044;BME280;29709;52.396;16.796;2024-02-15T13:37:11;101970.80;;;12.33;98.15
44044;BME280;29709;52.396;16.796;2024-02-15T13:40:28;101968.77;;;12.35;98.08
44044;BME280;29709;52.396;16.796;2024-02-15T13:43:44;101970.38;;;12.28;98.15
44044;BME280;29709;52.396;16.796;2024-02-15T13:46:57;101972.59;;;12.25;99.01
44044;BME280;29709;52.396;16.796;2024-02-15T13:50:10;101970.53;;;12.27;99.16
44044;BME280;29709;52.396;16.796;2024-02-15T13:53:27;101968.64;;;12.27;99.28
44044;BME280;29709;52.396;16.796;2024-02-15T13:56:42;101973.13;;;12.28;99.35
44044;BME280;29709;52.396;16.796;2024-02-15T13:59:55;101964.58;;;12.31;99.52
44044;BME280;29709;52.396;16.796;2024-02-15T14:03:08;101969.94;;;12.33;98.87
44044;BME280;29709;52.396;16.796;2024-02-15T14:06:23;101961.40;;;12.26;99.65
44044;BME280;29709;52.396;16.796;2024-02-15T14:09:36;101963.44;;;12.24;99.92
44044;BME280;29709;52.396;16.796;2024-02-15T14:12:51;101970.13;;;12.22;100.00
44044;BME280;29709;52.396;16.796;2024-02-15T14:16:16;101975.48;;;12.23;100.00
44044;BME280;29709;52.396;16.796;2024-02-15T14:19:30;101974.00;;;12.29;100.00
44044;BME280;29709;52.396;16.796;2024-02-15T14:22:45;101975.77;;;12.30;100.00
44044;BME280;29709;52.396;16.796;2024-02-15T14:26:02;101972.38;;;12.36;100.00
44044;BME280;29709;52.396;16.796;2024-02-15T14:29:15;101982.55;;;12.35;99.78
44044;BME280;29709;52.396;16.796;2024-02-15T14:32:35;101976.72;;;12.38;99.83
44044;BME280;29709;52.396;16.796;2024-02-15T14:36:00;101978.33;;;12.41;99.87
44044;BME280;29709;52.396;16.796;2024-02-15T14:39:13;101983.84;;;12.41;99.31
44044;BME280;29709;52.396;16.796;2024-02-15T14:42:27;101982.98;;;12.40;99.17
44044;BME280;29709;52.396;16.796;2024-02-15T14:45:41;101989.91;;;12.45;99.34
44044;BME280;29709;52.396;16.796;2024-02-15T14:48:54;101992.52;;;12.46;99.42
44044;BME280;29709;52.396;16.796;2024-02-15T14:52:07;101992.34;;;12.48;99.52
44044;BME280;29709;52.396;16.796;2024-02-15T14:55:20;101998.45;;;12.51;99.25
44044;BME280;29709;52.396;16.796;2024-02-15T14:58:34;101998.45;;;12.51;99.07
44044;BME280;29709;52.396;16.796;2024-02-15T15:01:48;101994.95;;;12.49;98.93
44044;BME280;29709;52.396;16.796;2024-02-15T15:05:03;101996.57;;;12.52;99.20
44044;BME280;29709;52.396;16.796;2024-02-15T15:08:28;101998.58;;;12.50;99.08
44044;BME280;29709;52.396;16.796;2024-02-15T15:11:54;102001.34;;;12.50;99.25
44044;BME280;29709;52.396;16.796;2024-02-15T15:15:21;101993.38;;;12.47;98.82
44044;BME280;29709;52.396;16.796;2024-02-15T15:18:35;101993.84;;;12.42;99.20
44044;BME280;29709;52.396;16.796;2024-02-15T15:21:48;102002.11;;;12.42;100.00
44044;BME280;29709;52.396;16.796;2024-02-15T15:25:02;101996.45;;;12.43;99.82
44044;BME280;29709;52.396;16.796;2024-02-15T15:28:17;101994.24;;;12.47;100.00
44044;BME280;29709;52.396;16.796;2024-02-15T15:31:32;101997.87;;;12.48;99.94
44044;BME280;29709;52.396;16.796;2024-02-15T15:34:47;102002.95;;;12.52;99.81
44044;BME280;29709;52.396;16.796;2024-02-15T15:38:02;101997.43;;;12.52;99.69
44044;BME280;29709;52.396;16.796;2024-02-15T15:41:15;101989.00;;;12.54;99.59
44044;BME280;29709;52.396;16.796;2024-02-15T15:44:30;101994.68;;;12.52;99.44
44044;BME280;29709;52.396;16.796;2024-02-15T15:47:43;101993.22;;;12.48;99.40
44044;BME280;29709;52.396;16.796;2024-02-15T15:50:56;101990.47;;;12.48;99.26
44044;BME280;29709;52.396;16.796;2024-02-15T15:54:13;101989.91;;;12.45;99.29
44044;BME280;29709;52.396;16.796;2024-02-15T15:57:26;101986.29;;;12.44;99.10
44044;BME280;29709;52.396;16.796;2024-02-15T16:00:39;101992.66;;;12.45;99.19
44044;BME280;29709;52.396;16.796;2024-02-15T16:03:52;101988.34;;;12.42;99.34
44044;BME280;29709;52.396;16.796;2024-02-15T16:07:07;101987.74;;;12.38;99.55
44044;BME280;29709;52.396;16.796;2024-02-15T16:10:20;101977.74;;;12.37;99.55
44044;BME280;29709;52.396;16.796;2024-02-15T16:13:39;101981.52;;;12.36;99.32
44044;BME280;29709;52.396;16.796;2024-02-15T16:16:55;101980.50;;;12.37;99.30
44044;BME280;29709;52.396;16.796;2024-02-15T16:20:09;101983.41;;;12.36;99.15
44044;BME280;29709;52.396;16.796;2024-02-15T16:23:24;101977.19;;;12.34;99.62
44044;BME280;29709;52.396;16.796;2024-02-15T16:26:37;101988.05;;;12.35;99.17
44044;BME280;29709;52.396;16.796;2024-02-15T16:29:50;102000.98;;;12.35;99.00
44044;BME280;29709;52.396;16.796;2024-02-15T16:33:04;101991.69;;;12.36;99.18
44044;BME280;29709;52.396;16.796;2024-02-15T16:36:17;101999.09;;;12.35;99.21
44044;BME280;29709;52.396;16.796;2024-02-15T16:39:30;102005.47;;;12.36;98.90
44044;BME280;29709;52.396;16.796;2024-02-15T16:42:45;102012.87;;;12.35;99.25
44044;BME280;29709;52.396;16.796;2024-02-15T16:46:01;102014.77;;;12.35;99.28
44044;BME280;29709;52.396;16.796;2024-02-15T16:49:17;102015.48;;;12.37;98.99
44044;BME280;29709;52.396;16.796;2024-02-15T16:52:30;102015.63;;;12.35;99.02
44044;BME280;29709;52.396;16.796;2024-02-15T16:55:44;102010.42;;;12.32;98.77
44044;BME280;29709;52.396;16.796;2024-02-15T16:58:57;102013.46;;;12.29;99.05
44044;BME280;29709;52.396;16.796;2024-02-15T17:02:10;102016.22;;;12.29;99.33
44044;BME280;29709;52.396;16.796;2024-02-15T17:05:24;102016.37;;;12.28;99.29
44044;BME280;29709;52.396;16.796;2024-02-15T17:08:40;102014.79;;;12.25;99.14
44044;BME280;29709;52.396;16.796;2024-02-15T17:11:54;102014.08;;;12.23;99.33
44044;BME280;29709;52.396;16.796;2024-02-15T17:15:08;102011.31;;;12.23;99.55
44044;BME280;29709;52.396;16.796;2024-02-15T17:18:24;102015.80;;;12.24;99.19
44044;BME280;29709;52.396;16.796;2024-02-15T17:21:41;102011.62;;;12.20;99.16
44044;BME280;29709;52.396;16.796;2024-02-15T17:24:55;102013.36;;;12.21;99.14